TimePDT,TemperatureF,Dew PointF,Humidity,Sea Level PressureIn,VisibilityMPH,Wind Direction,Wind SpeedMPH,Gust SpeedMPH,PrecipitationIn,Events,Conditions,WindDirDegrees,DateUTC
12:54 AM,52.0,48.0,86,30.16,10.0,Calm,Calm,-,N/A,,Clear,0,2013-10-26 07:54:00
1:54 AM,51.1,46.9,86,30.16,10.0,NE,3.5,-,N/A,,Clear,50,2013-10-26 08:54:00
2:54 AM,51.1,46.9,86,30.17,10.0,Calm,Calm,-,N/A,,Clear,0,2013-10-26 09:54:00
3:54 AM,50.0,46.9,89,30.16,10.0,ENE,3.5,-,N/A,,Clear,60,2013-10-26 10:54:00
4:54 AM,48.0,46.0,93,30.15,10.0,Calm,Calm,-,N/A,,Clear,0,2013-10-26 11:54:00
5:54 AM,48.9,46.0,90,30.15,10.0,ENE,3.5,-,N/A,,Clear,70,2013-10-26 12:54:00
6:54 AM,46.9,45.0,93,30.15,10.0,Calm,Calm,-,N/A,,Clear,0,2013-10-26 13:54:00
7:54 AM,48.0,46.0,93,30.17,10.0,ENE,3.5,-,N/A,,Clear,70,2013-10-26 14:54:00
8:54 AM,53.1,48.9,86,30.18,10.0,Calm,Calm,-,N/A,,Clear,0,2013-10-26 15:54:00
9:54 AM,57.9,52.0,81,30.18,10.0,Calm,Calm,-,N/A,,Clear,0,2013-10-26 16:54:00
10:54 AM,61.0,53.1,75,30.17,10.0,West,4.6,-,N/A,,Clear,270,2013-10-26 17:54:00
11:54 AM,61.0,53.1,75,30.16,10.0,West,3.5,-,N/A,,Clear,260,2013-10-26 18:54:00
12:54 PM,64.0,54.0,70,30.13,9.0,WNW,4.6,-,N/A,,Clear,290,2013-10-26 19:54:00
1:54 PM,66.0,53.1,63,30.10,10.0,West,5.8,-,N/A,,Clear,270,2013-10-26 20:54:00
2:54 PM,70.0,51.1,51,30.08,10.0,West,4.6,-,N/A,,Clear,280,2013-10-26 21:54:00
3:54 PM,72.0,51.1,48,30.06,10.0,WNW,8.1,-,N/A,,Clear,290,2013-10-26 22:54:00
4:54 PM,69.1,51.1,53,30.05,10.0,WNW,8.1,-,N/A,,Clear,290,2013-10-26 23:54:00
5:54 PM,64.9,51.1,61,30.04,10.0,WNW,6.9,-,N/A,,Clear,300,2013-10-27 00:54:00
6:54 PM,59.0,51.1,75,30.05,10.0,NW,3.5,-,N/A,,Clear,310,2013-10-27 01:54:00
7:54 PM,57.0,51.1,81,30.06,10.0,Calm,Calm,-,N/A,,Clear,0,2013-10-27 02:54:00
8:54 PM,55.9,51.1,84,30.06,10.0,Calm,Calm,-,N/A,,Clear,0,2013-10-27 03:54:00
9:54 PM,55.0,52.0,89,30.07,10.0,Calm,Calm,-,N/A,,Clear,0,2013-10-27 04:54:00
10:54 PM,54.0,51.1,90,30.08,10.0,NNW,3.5,-,N/A,,Clear,330,2013-10-27 05:54:00
11:54 PM,51.1,48.9,92,30.07,10.0,NW,4.6,-,N/A,,Clear,310,2013-10-27 06:54:00